sensor_id;sensor_type;location;lat;lon;timestamp;pressure;altitude;pressure_sealevel;temperature;humidity
8575;BME280;4325;42.520;27.448;2023-05-03T00:02:06;101809.19;;;11.26;100.00
8575;BME280;4325;42.520;27.448;2023-05-03T00:04:34;101804.75;;;11.25;100.00
8575;BME280;4325;42.520;27.448;2023-05-03T00:07:01;101807.69;;;11.18;100.00
8575;BME280;4325;42.520;27.448;2023-05-03T00:09:28;101806.28;;;11.16;100.00
8575;BME280;4325;42.520;27.448;2023-05-03T00:11:55;101809.84;;;11.16;100.00
8575;BME280;4325;42.520;27.448;2023-05-03T00:14:22;101818.00;;;11.11;100.00
8575;BME280;4325;42.520;27.448;2023-05-03T00:16:49;101807.25;;;11.10;100.00
8575;BME280;4325;42.520;27.448;2023-05-03T00:19:17;101806.94;;;11.06;100.00
8575;BME280;4325;42.520;27.448;2023-05-03T00:21:44;101808.00;;;11.05;100.00
8575;BME280;4325;42.520;27.448;2023-05-03T00:24:11;101806.00;;;11.01;100.00
8575;BME280;4325;42.520;27.448;2023-05-03T00:26:38;101801.63;;;11.00;100.00
8575;BME280;4325;42.520;27.448;2023-05-03T00:29:05;101797.38;;;10.92;100.00
8575;BME280;4325;42.520;27.448;2023-05-03T00:31:32;101799.78;;;10.89;100.00
8575;BME280;4325;42.520;27.448;2023-05-03T00:33:59;101797.31;;;10.87;100.00
8575;BME280;4325;42.520;27.448;2023-05-03T00:36:27;101807.91;;;10.84;100.00
8575;BME280;4325;42.520;27.448;2023-05-03T00:38:55;101807.81;;;10.79;100.00
8575;BME280;4325;42.520;27.448;2023-05-03T00:41:22;101792.63;;;10.71;100.00
8575;BME280;4325;42.520;27.448;2023-05-03T00:43:49;101792.78;;;10.65;100.00
8575;BME280;4325;42.520;27.448;2023-05-03T00:46:16;101795.41;;;10.59;100.00
8575;BME280;4325;42.520;27.448;2023-05-03T00:48:43;101796.41;;;10.53;100.00
8575;BME280;4325;42.520;27.448;2023-05-03T00:51:11;101789.75;;;10.49;100.00
8575;BME280;4325;42.520;27.448;2023-05-03T00:53:41;101788.09;;;10.48;100.00
8575;BME280;4325;42.520;27.448;2023-05-03T00:56:09;101775.75;;;10.46;100.00
8575;BME280;4325;42.520;27.448;2023-05-03T00:58:36;101779.44;;;10.40;100.00
8575;BME280;4325;42.520;27.448;2023-05-03T01:01:04;101780.75;;;10.37;100.00
8575;BME280;4325;42.520;27.448;2023-05-03T01:03:32;101778.88;;;10.38;100.00
8575;BME280;4325;42.520;27.448;2023-05-03T01:06:06;101784.91;;;10.40;100.00
8575;BME280;4325;42.520;27.448;2023-05-03T01:08:37;101775.94;;;10.28;100.00
8575;BME280;4325;42.520;27.448;2023-05-03T01:11:10;101787.44;;;10.41;100.00
8575;BME280;4325;42.520;27.448;2023-05-03T01:13:42;101790.41;;;10.40;100.00
8575;BME280;4325;42.520;27.448;2023-05-03T01:16:19;101787.44;;;10.41;100.00
8575;BME280;4325;42.520;27.448;2023-05-03T01:18:49;101784.91;;;10.40;100.00
8575;BME280;4325;42.520;27.448;2023-05-03T01:21:18;101785.19;;;10.38;100.00
8575;BME280;4325;42.520;27.448;2023-05-03T01:23:54;101778.59;;;10.39;100.00
8575;BME280;4325;42.520;27.448;2023-05-03T01:26:24;101771.97;;;10.35;100.00
8575;BME280;4325;42.520;27.448;2023-05-03T01:28:52;101777.34;;;10.30;100.00
8575;BME280;4325;42.520;27.448;2023-05-03T01:31:25;101780.56;;;10.27;100.00
8575;BME280;4325;42.520;27.448;2023-05-03T01:34:00;101783.81;;;10.24;100.00
8575;BME280;4325;42.520;27.448;2023-05-03T01:36:31;101783.72;;;10.19;100.00
8575;BME280;4325;42.520;27.448;2023-05-03T01:39:06;101782.63;;;10.20;100.00
8575;BME280;4325;42.520;27.448;2023-05-03T01:41:36;101783.13;;;10.17;100.00
8575;BME280;4325;42.520;27.448;2023-05-03T01:44:04;101780.41;;;10.17;100.00
8575;BME280;4325;42.520;27.448;2023-05-03T01:46:32;101783.59;;;10.14;100.00
8575;BME280;4325;42.520;27.448;2023-05-03T01:48:58;101782.19;;;10.12;100.00
8575;BME280;4325;42.520;27.448;2023-05-03T01:51:25;101788.94;;;10.09;100.00
8575;BME280;4325;42.520;27.448;2023-05-03T01:53:52;101783.94;;;10.06;100.00
8575;BME280;4325;42.520;27.448;2023-05-03T01:56:19;101774.06;;;10.05;100.00
8575;BME280;4325;42.520;27.448;2023-05-03T01:58:48;101774.69;;;10.07;100.00
8575;BME280;4325;42.520;27.448;2023-05-03T02:01:15;101775.84;;;10.11;100.00
8575;BME280;4325;42.520;27.448;2023-05-03T02:03:42;101770.50;;;10.16;100.00
8575;BME280;4325;42.520;27.448;2023-05-03T02:06:09;101769.44;;;10.17;100.00
8575;BME280;4325;42.520;27.448;2023-05-03T02:08:35;101775.09;;;10.27;100.00
8575;BME280;4325;42.520;27.448;2023-05-03T02:11:02;101770.81;;;10.31;100.00
8575;BME280;4325;42.520;27.448;2023-05-03T02:13:29;101770.28;;;10.34;100.00
8575;BME280;4325;42.520;27.448;2023-05-03T02:15:57;101761.69;;;10.42;100.00
8575;BME280;4325;42.520;27.448;2023-05-03T02:18:24;101762.84;;;10.46;100.00
8575;BME280;4325;42.520;27.448;2023-05-03T02:20:55;101754.63;;;10.46;100.00
8575;BME280;4325;42.520;27.448;2023-05-03T02:23:22;101758.72;;;10.44;100.00
8575;BME280;4325;42.520;27.448;2023-05-03T02:25:49;101748.59;;;10.44;100.00
8575;BME280;4325;42.520;27.448;2023-05-03T02:28:16;101751.91;;;10.46;100.00
8575;BME280;4325;42.520;27.448;2023-05-03T02:30:43;101750.84;;;10.47;100.00
8575;BME280;4325;42.520;27.448;2023-05-03T02:33:11;101750.59;;;10.49;100.00
8575;BME280;4325;42.520;27.448;2023-05-03T02:35:38;101747.63;;;10.50;100.00
8575;BME280;4325;42.520;27.448;2023-05-03T02:38:05;101740.94;;;10.46;100.00
8575;BME280;4325;42.520;27.448;2023-05-03T02:40:32;101749.50;;;10.50;100.00
8575;BME280;4325;42.520;27.448;2023-05-03T02:42:59;101751.28;;;10.56;100.00
8575;BME280;4325;42.520;27.448;2023-05-03T02:45:26;101747.28;;;10.63;100.00
8575;BME280;4325;42.520;27.448;2023-05-03T02:47:53;101753.94;;;10.68;100.00
8575;BME280;4325;42.520;27.448;2023-05-03T02:50:22;101753.94;;;10.68;100.00
8575;BME280;4325;42.520;27.448;2023-05-03T02:52:48;101751.53;;;10.71;100.00
8575;BME280;4325;42.520;27.448;2023-05-03T02:55:15;101758.19;;;10.75;100.00
8575;BME280;4325;42.520;27.448;2023-05-03T02:57:42;101763.75;;;10.80;100.00
8575;BME280;4325;42.520;27.448;2023-05-03T03:00:10;101759.78;;;10.88;100.00
8575;BME280;4325;42.520;27.448;2023-05-03T03:02:39;101767.56;;;10.96;100.00
8575;BME280;4325;42.520;27.448;2023-05-03T03:05:07;101768.22;;;11.03;100.00
8575;BME280;4325;42.520;27.448;2023-05-03T03:07:36;101774.88;;;11.07;100.00
8575;BME280;4325;42.520;27.448;2023-05-03T03:10:05;101774.38;;;11.10;100.00
8575;BME280;4325;42.520;27.448;2023-05-03T03:12:32;101774.97;;;11.12;100.00
8575;BME280;4325;42.520;27.448;2023-05-03T03:14:59;101777.19;;;11.15;100.00
8575;BME280;4325;42.520;27.448;2023-05-03T03:17:26;101777.78;;;11.17;100.00
8575;BME280;4325;42.520;27.448;2023-05-03T03:19:53;101771.56;;;11.21;100.00
8575;BME280;4325;42.520;27.448;2023-05-03T03:22:20;101775.72;;;11.24;100.00
8575;BME280;4325;42.520;27.448;2023-05-03T03:24:48;101764.22;;;11.27;100.00
8575;BME280;4325;42.520;27.448;2023-05-03T03:27:15;101778.00;;;11.32;100.00
8575;BME280;4325;42.520;27.448;2023-05-03T03:29:42;101780.00;;;11.37;100.00
8575;BME280;4325;42.520;27.448;2023-05-03T03:32:08;101786.16;;;11.44;100.00
8575;BME280;4325;42.520;27.448;2023-05-03T03:34:35;101788.13;;;11.48;100.00
8575;BME280;4325;42.520;27.448;2023-05-03T03:37:02;101792.03;;;11.52;100.00
8575;BME280;4325;42.520;27.448;2023-05-03T03:39:29;101803.25;;;11.51;100.00
8575;BME280;4325;42.520;27.448;2023-05-03T03:41:58;101791.44;;;11.50;100.00
8575;BME280;4325;42.520;27.448;2023-05-03T03:44:27;101789.78;;;11.49;100.00
8575;BME280;4325;42.520;27.448;2023-05-03T03:46:54;101801.28;;;11.46;100.00
8575;BME280;4325;42.520;27.448;2023-05-03T03:49:20;101802.00;;;11.42;100.00
8575;BME280;4325;42.520;27.448;2023-05-03T03:51:47;101805.09;;;11.45;100.00
8575;BME280;4325;42.520;27.448;2023-05-03T03:54:14;101808.47;;;11.52;100.00
8575;BME280;4325;42.520;27.448;2023-05-03T03:56:41;101807.53;;;11.63;100.00
8575;BME280;4325;42.520;27.448;2023-05-03T03:59:09;101806.84;;;11.68;100.00
8575;BME280;4325;42.520;27.448;2023-05-03T04:01:36;101815.19;;;11.78;100.00
8575;BME280;4325;42.520;27.448;2023-05-03T04:04:03;101806.59;;;11.91;100.00
8575;BME280;4325;42.520;27.448;2023-05-03T04:06:30;101804.03;;;12.06;100.00
8575;BME280;4325;42.520;27.448;2023-05-03T04:08:57;101814.88;;;12.18;100.00
8575;BME280;4325;42.520;27.448;2023-05-03T04:11:24;101810.03;;;12.25;100.00
8575;BME280;4325;42.520;27.448;2023-05-03T04:13:51;101810.28;;;12.45;100.00
8575;BME280;4325;42.520;27.448;2023-05-03T04:16:19;101805.00;;;12.65;100.00
8575;BME280;4325;42.520;27.448;2023-05-03T04:18:46;101810.66;;;12.85;100.00
8575;BME280;4325;42.520;27.448;2023-05-03T04:21:13;101810.66;;;13.12;100.00
8575;BME280;4325;42.520;27.448;2023-05-03T04:23:40;101808.72;;;13.44;100.00
8575;BME280;4325;42.520;27.448;2023-05-03T04:26:07;101798.75;;;13.80;100.00
8575;BME280;4325;42.520;27.448;2023-05-03T04:28:34;101794.78;;;14.13;100.00
8575;BME280;4325;42.520;27.448;2023-05-03T04:31:03;101799.06;;;14.45;100.00
8575;BME280;4325;42.520;27.448;2023-05-03T04:33:31;101799.13;;;14.76;100.00
8575;BME280;4325;42.520;27.448;2023-05-03T04:36:02;101804.09;;;15.09;100.00
8575;BME280;4325;42.520;27.448;2023-05-03T04:38:30;101796.09;;;15.38;100.00
8575;BME280;4325;42.520;27.448;2023-05-03T04:40:57;101807.94;;;15.68;100.00
8575;BME280;4325;42.520;27.448;2023-05-03T04:43:24;101810.06;;;15.97;100.00
8575;BME280;4325;42.520;27.448;2023-05-03T04:45:51;101811.06;;;16.21;100.00
8575;BME280;4325;42.520;27.448;2023-05-03T04:48:18;101820.44;;;16.30;100.00
8575;BME280;4325;42.520;27.448;2023-05-03T04:50:47;101816.31;;;16.27;100.00
8575;BME280;4325;42.520;27.448;2023-05-03T04:53:14;101814.41;;;16.23;100.00
8575;BME280;4325;42.520;27.448;2023-05-03T04:55:41;101808.06;;;16.12;100.00
8575;BME280;4325;42.520;27.448;2023-05-03T04:58:08;101805.38;;;15.97;100.00
8575;BME280;4325;42.520;27.448;2023-05-03T05:00:35;101813.41;;;15.89;100.00
8575;BME280;4325;42.520;27.448;2023-05-03T05:03:01;101824.75;;;15.82;100.00
8575;BME280;4325;42.520;27.448;2023-05-03T05:05:28;101837.22;;;15.74;100.00
8575;BME280;4325;42.520;27.448;2023-05-03T05:07:56;101841.91;;;15.69;100.00
8575;BME280;4325;42.520;27.448;2023-05-03T05:10:23;101842.97;;;15.78;100.00
8575;BME280;4325;42.520;27.448;2023-05-03T05:12:50;101842.69;;;15.90;100.00
8575;BME280;4325;42.520;27.448;2023-05-03T05:15:17;101852.59;;;16.06;100.00
8575;BME280;4325;42.520;27.448;2023-05-03T05:17:44;101859.72;;;16.17;100.00
8575;BME280;4325;42.520;27.448;2023-05-03T05:20:11;101850.28;;;16.33;100.00
8575;BME280;4325;42.520;27.448;2023-05-03T05:22:38;101842.19;;;16.52;100.00
8575;BME280;4325;42.520;27.448;2023-05-03T05:25:07;101848.22;;;16.64;100.00
8575;BME280;4325;42.520;27.448;2023-05-03T05:27:34;101849.63;;;16.61;100.00
8575;BME280;4325;42.520;27.448;2023-05-03T05:30:01;101841.34;;;16.56;100.00
8575;BME280;4325;42.520;27.448;2023-05-03T05:32:29;101834.16;;;16.55;100.00
8575;BME280;4325;42.520;27.448;2023-05-03T05:34:56;101829.16;;;16.62;100.00
8575;BME280;4325;42.520;27.448;2023-05-03T05:37:24;101822.19;;;16.65;100.00
8575;BME280;4325;42.520;27.448;2023-05-03T05:39:52;101807.22;;;16.76;100.00
8575;BME280;4325;42.520;27.448;2023-05-03T05:42:20;101804.16;;;16.77;100.00
8575;BME280;4325;42.520;27.448;2023-05-03T05:44:47;101821.06;;;16.71;100.00
8575;BME280;4325;42.520;27.448;2023-05-03T05:47:14;101839.09;;;16.63;100.00
8575;BME280;4325;42.520;27.448;2023-05-03T05:49:41;101847.72;;;16.46;100.00
8575;BME280;4325;42.520;27.448;2023-05-03T05:52:08;101848.59;;;16.37;100.00
8575;BME280;4325;42.520;27.448;2023-05-03T05:54:35;101864.06;;;16.38;100.00
8575;BME280;4325;42.520;27.448;2023-05-03T05:57:02;101877.56;;;16.49;100.00
8575;BME280;4325;42.520;27.448;2023-05-03T05:59:30;101875.00;;;16.73;100.00
8575;BME280;4325;42.520;27.448;2023-05-03T06:01:57;101878.97;;;17.01;100.00
8575;BME280;4325;42.520;27.448;2023-05-03T06:04:24;101878.88;;;17.11;100.00
8575;BME280;4325;42.520;27.448;2023-05-03T06:06:51;101879.13;;;17.20;100.00
8575;BME280;4325;42.520;27.448;2023-05-03T06:09:18;101880.72;;;17.26;100.00
8575;BME280;4325;42.520;27.448;2023-05-03T06:11:45;101866.72;;;17.46;100.00
8575;BME280;4325;42.520;27.448;2023-05-03T06:14:12;101877.88;;;17.69;100.00
8575;BME280;4325;42.520;27.448;2023-05-03T06:16:41;101888.53;;;17.86;100.00
8575;BME280;4325;42.520;27.448;2023-05-03T06:19:08;101880.31;;;18.05;100.00
8575;BME280;4325;42.520;27.448;2023-05-03T06:21:34;101870.41;;;18.22;100.00
8575;BME280;4325;42.520;27.448;2023-05-03T06:24:01;101872.16;;;18.37;100.00
8575;BME280;4325;42.520;27.448;2023-05-03T06:26:28;101892.22;;;18.53;100.00
8575;BME280;4325;42.520;27.448;2023-05-03T06:28:55;101900.06;;;18.69;100.00
8575;BME280;4325;42.520;27.448;2023-05-03T06:31:25;101906.75;;;18.87;100.00
8575;BME280;4325;42.520;27.448;2023-05-03T06:33:53;101907.69;;;19.20;100.00
8575;BME280;4325;42.520;27.448;2023-05-03T06:36:20;101918.13;;;19.46;100.00
8575;BME280;4325;42.520;27.448;2023-05-03T06:38:47;101923.78;;;19.87;100.00
8575;BME280;4325;42.520;27.448;2023-05-03T06:41:14;101925.03;;;20.54;95.91
8575;BME280;4325;42.520;27.448;2023-05-03T06:43:41;101928.59;;;21.09;91.28
8575;BME280;4325;42.520;27.448;2023-05-03T06:46:08;101913.22;;;21.12;84.72
8575;BME280;4325;42.520;27.448;2023-05-03T06:48:36;101938.09;;;20.94;84.12
8575;BME280;4325;42.520;27.448;2023-05-03T06:51:05;101930.69;;;20.63;88.63
8575;BME280;4325;42.520;27.448;2023-05-03T06:53:31;101918.97;;;20.66;92.27
8575;BME280;4325;42.520;27.448;2023-05-03T06:55:58;101920.28;;;20.41;92.82
8575;BME280;4325;42.520;27.448;2023-05-03T06:58:25;101931.59;;;20.17;93.69
8575;BME280;4325;42.520;27.448;2023-05-03T07:00:52;101919.09;;;20.01;95.15
8575;BME280;4325;42.520;27.448;2023-05-03T07:03:19;101938.63;;;19.83;95.81
8575;BME280;4325;42.520;27.448;2023-05-03T07:05:47;101953.53;;;19.87;97.42
8575;BME280;4325;42.520;27.448;2023-05-03T07:08:15;101964.56;;;19.92;95.23
8575;BME280;4325;42.520;27.448;2023-05-03T07:10:42;101981.84;;;19.89;95.67
8575;BME280;4325;42.520;27.448;2023-05-03T07:13:09;101980.63;;;19.62;96.09
8575;BME280;4325;42.520;27.448;2023-05-03T07:15:35;101976.38;;;19.51;97.65
8575;BME280;4325;42.520;27.448;2023-05-03T07:18:03;101963.78;;;19.35;97.60
8575;BME280;4325;42.520;27.448;2023-05-03T07:20:29;101974.72;;;19.50;99.11
8575;BME280;4325;42.520;27.448;2023-05-03T07:22:56;101990.09;;;19.61;98.97
8575;BME280;4325;42.520;27.448;2023-05-03T07:25:25;101994.53;;;19.62;98.13
8575;BME280;4325;42.520;27.448;2023-05-03T07:27:52;101980.63;;;19.62;99.40
8575;BME280;4325;42.520;27.448;2023-05-03T07:30:19;101976.03;;;19.71;99.66
8575;BME280;4325;42.520;27.448;2023-05-03T07:32:46;101985.06;;;19.63;99.15
8575;BME280;4325;42.520;27.448;2023-05-03T07:35:15;101972.59;;;19.42;99.97
8575;BME280;4325;42.520;27.448;2023-05-03T07:37:42;101982.19;;;19.31;100.00
8575;BME280;4325;42.520;27.448;2023-05-03T07:40:09;101982.19;;;19.31;100.00
8575;BME280;4325;42.520;27.448;2023-05-03T07:42:38;101984.34;;;19.39;100.00
8575;BME280;4325;42.520;27.448;2023-05-03T07:45:06;101978.00;;;19.52;100.00
8575;BME280;4325;42.520;27.448;2023-05-03T07:47:33;101979.44;;;19.68;97.30
8575;BME280;4325;42.520;27.448;2023-05-03T07:50:02;101985.38;;;19.94;91.74
8575;BME280;4325;42.520;27.448;2023-05-03T07:52:34;101984.94;;;20.19;84.52
8575;BME280;4325;42.520;27.448;2023-05-03T07:55:01;101988.84;;;20.78;86.02
8575;BME280;4325;42.520;27.448;2023-05-03T07:57:28;101979.19;;;21.38;78.88
8575;BME280;4325;42.520;27.448;2023-05-03T07:59:57;101979.41;;;22.08;74.60
8575;BME280;4325;42.520;27.448;2023-05-03T08:02:24;101983.34;;;22.38;69.94
8575;BME280;4325;42.520;27.448;2023-05-03T08:04:51;101975.66;;;22.83;69.36
8575;BME280;4325;42.520;27.448;2023-05-03T08:07:19;101970.00;;;23.22;66.79
8575;BME280;4325;42.520;27.448;2023-05-03T08:09:46;101968.53;;;24.02;62.37
8575;BME280;4325;42.520;27.448;2023-05-03T08:12:13;101964.78;;;24.53;58.41
8575;BME280;4325;42.520;27.448;2023-05-03T08:14:40;101979.88;;;24.98;54.89
8575;BME280;4325;42.520;27.448;2023-05-03T08:17:08;101970.84;;;25.63;49.97
8575;BME280;4325;42.520;27.448;2023-05-03T08:19:35;101970.53;;;26.42;48.22
8575;BME280;4325;42.520;27.448;2023-05-03T08:22:02;101965.97;;;27.22;45.92
8575;BME280;4325;42.520;27.448;2023-05-03T08:24:30;101967.63;;;29.66;40.73
8575;BME280;4325;42.520;27.448;2023-05-03T08:26:56;101966.47;;;32.63;33.89
8575;BME280;4325;42.520;27.448;2023-05-03T08:29:25;101963.28;;;35.17;28.80
8575;BME280;4325;42.520;27.448;2023-05-03T08:31:52;101969.53;;;35.92;27.58
8575;BME280;4325;42.520;27.448;2023-05-03T08:34:20;101969.44;;;34.67;28.62
8575;BME280;4325;42.520;27.448;2023-05-03T08:36:47;101973.38;;;32.69;29.76
8575;BME280;4325;42.520;27.448;2023-05-03T08:39:13;101958.69;;;31.19;31.50
8575;BME280;4325;42.520;27.448;2023-05-03T08:41:41;101955.94;;;29.87;33.91
8575;BME280;4325;42.520;27.448;2023-05-03T08:44:11;101957.00;;;28.43;36.74
8575;BME280;4325;42.520;27.448;2023-05-03T08:46:38;101943.53;;;26.86;39.05
8575;BME280;4325;42.520;27.448;2023-05-03T08:49:08;101932.84;;;25.86;41.60
8575;BME280;4325;42.520;27.448;2023-05-03T08:51:39;101928.59;;;24.98;43.53
8575;BME280;4325;42.520;27.448;2023-05-03T08:54:06;101916.22;;;24.40;45.73
8575;BME280;4325;42.520;27.448;2023-05-03T08:56:40;101921.34;;;23.75;46.64
8575;BME280;4325;42.520;27.448;2023-05-03T08:59:07;101929.72;;;23.15;48.92
8575;BME280;4325;42.520;27.448;2023-05-03T09:01:35;101923.25;;;22.71;50.02
8575;BME280;4325;42.520;27.448;2023-05-03T09:04:02;101931.09;;;22.30;52.67
8575;BME280;4325;42.520;27.448;2023-05-03T09:06:29;101924.25;;;22.36;54.03
8575;BME280;4325;42.520;27.448;2023-05-03T09:09:01;101925.75;;;22.90;53.59
8575;BME280;4325;42.520;27.448;2023-05-03T09:11:30;101931.53;;;23.02;51.78
8575;BME280;4325;42.520;27.448;2023-05-03T09:14:07;101919.31;;;22.81;52.27
8575;BME280;4325;42.520;27.448;2023-05-03T09:16:35;101927.34;;;22.34;53.44
8575;BME280;4325;42.520;27.448;2023-05-03T09:19:04;101931.75;;;21.96;55.60
8575;BME280;4325;42.520;27.448;2023-05-03T09:21:34;101931.25;;;21.72;56.11
8575;BME280;4325;42.520;27.448;2023-05-03T09:24:11;101915.47;;;21.45;56.81
8575;BME280;4325;42.520;27.448;2023-05-03T09:26:39;101905.63;;;21.26;58.09
8575;BME280;4325;42.520;27.448;2023-05-03T09:29:07;101888.88;;;21.03;59.10
8575;BME280;4325;42.520;27.448;2023-05-03T09:31:35;101880.22;;;20.56;61.25
8575;BME280;4325;42.520;27.448;2023-05-03T09:34:19;101861.22;;;20.17;64.71
8575;BME280;4325;42.520;27.448;2023-05-03T09:36:47;101844.53;;;19.90;65.04
8575;BME280;4325;42.520;27.448;2023-05-03T09:39:17;101834.63;;;19.70;66.80
8575;BME280;4325;42.520;27.448;2023-05-03T09:41:45;101832.34;;;19.58;68.44
8575;BME280;4325;42.520;27.448;2023-05-03T09:44:12;101836.66;;;19.64;67.63
8575;BME280;4325;42.520;27.448;2023-05-03T09:46:39;101811.88;;;19.82;66.77
8575;BME280;4325;42.520;27.448;2023-05-03T09:49:05;101805.81;;;20.20;64.93
8575;BME280;4325;42.520;27.448;2023-05-03T09:51:33;101811.81;;;20.77;62.71
8575;BME280;4325;42.520;27.448;2023-05-03T09:54:00;101827.38;;;21.36;59.15
8575;BME280;4325;42.520;27.448;2023-05-03T09:56:29;101837.56;;;21.93;56.96
8575;BME280;4325;42.520;27.448;2023-05-03T09:58:57;101841.38;;;22.54;54.62
8575;BME280;4325;42.520;27.448;2023-05-03T10:01:24;101835.22;;;23.25;51.12
8575;BME280;4325;42.520;27.448;2023-05-03T10:03:54;101841.03;;;23.84;46.87
8575;BME280;4325;42.520;27.448;2023-05-03T10:06:24;101839.66;;;23.43;48.07
8575;BME280;4325;42.520;27.448;2023-05-03T10:08:54;101838.19;;;23.03;49.72
8575;BME280;4325;42.520;27.448;2023-05-03T10:11:25;101833.22;;;22.66;50.15
8575;BME280;4325;42.520;27.448;2023-05-03T10:13:54;101826.56;;;22.36;51.03
8575;BME280;4325;42.520;27.448;2023-05-03T10:16:25;101828.06;;;22.42;51.07
8575;BME280;4325;42.520;27.448;2023-05-03T10:18:57;101822.34;;;23.58;47.85
8575;BME280;4325;42.520;27.448;2023-05-03T10:21:34;101806.03;;;24.65;45.48
8575;BME280;4325;42.520;27.448;2023-05-03T10:24:10;101805.09;;;25.56;42.75
8575;BME280;4325;42.520;27.448;2023-05-03T10:26:39;101820.56;;;25.74;41.92
8575;BME280;4325;42.520;27.448;2023-05-03T10:32:30;101836.09;;;27.32;37.79
8575;BME280;4325;42.520;27.448;2023-05-03T10:35:00;101851.31;;;28.49;36.44
8575;BME280;4325;42.520;27.448;2023-05-03T10:37:27;101837.63;;;29.59;33.86
8575;BME280;4325;42.520;27.448;2023-05-03T10:39:54;101837.38;;;30.62;32.01
8575;BME280;4325;42.520;27.448;2023-05-03T10:42:23;101837.50;;;30.43;31.55
8575;BME280;4325;42.520;27.448;2023-05-03T10:44:52;101841.25;;;29.79;32.64
8575;BME280;4325;42.520;27.448;2023-05-03T10:47:21;101854.09;;;29.57;33.18
8575;BME280;4325;42.520;27.448;2023-05-03T10:52:50;101861.63;;;30.14;32.98
8575;BME280;4325;42.520;27.448;2023-05-03T10:55:18;101859.81;;;30.02;32.62
8575;BME280;4325;42.520;27.448;2023-05-03T10:57:47;101851.84;;;29.85;32.67
8575;BME280;4325;42.520;27.448;2023-05-03T11:00:35;101851.84;;;29.24;34.18
8575;BME280;4325;42.520;27.448;2023-05-03T11:03:11;101856.28;;;28.71;34.69
8575;BME280;4325;42.520;27.448;2023-05-03T11:05:40;101854.50;;;28.17;36.20
8575;BME280;4325;42.520;27.448;2023-05-03T11:08:10;101840.91;;;28.03;35.87
8575;BME280;4325;42.520;27.448;2023-05-03T11:10:38;101837.66;;;28.51;35.77
8575;BME280;4325;42.520;27.448;2023-05-03T11:13:06;101840.66;;;29.12;34.65
8575;BME280;4325;42.520;27.448;2023-05-03T11:15:33;101859.97;;;29.10;33.67
8575;BME280;4325;42.520;27.448;2023-05-03T11:18:00;101850.78;;;29.74;33.14
8575;BME280;4325;42.520;27.448;2023-05-03T11:20:28;101856.06;;;31.96;30.47
8575;BME280;4325;42.520;27.448;2023-05-03T11:22:55;101856.78;;;33.63;28.15
8575;BME280;4325;42.520;27.448;2023-05-03T11:25:24;101860.59;;;33.06;28.01
8575;BME280;4325;42.520;27.448;2023-05-03T11:27:51;101853.03;;;31.75;29.48
8575;BME280;4325;42.520;27.448;2023-05-03T11:30:18;101850.66;;;30.58;31.56
8575;BME280;4325;42.520;27.448;2023-05-03T11:32:46;101844.69;;;30.63;31.75
8575;BME280;4325;42.520;27.448;2023-05-03T11:35:14;101848.22;;;30.08;32.20
8575;BME280;4325;42.520;27.448;2023-05-03T11:37:42;101843.13;;;28.60;34.08
8575;BME280;4325;42.520;27.448;2023-05-03T11:40:14;101848.22;;;26.81;37.09
8575;BME280;4325;42.520;27.448;2023-05-03T11:42:53;101841.44;;;25.32;40.70
8575;BME280;4325;42.520;27.448;2023-05-03T11:45:22;101851.94;;;24.23;43.09
8575;BME280;4325;42.520;27.448;2023-05-03T11:47:50;101868.44;;;23.35;46.62
8575;BME280;4325;42.520;27.448;2023-05-03T11:50:17;101857.88;;;22.81;49.34
8575;BME280;4325;42.520;27.448;2023-05-03T11:52:44;101866.72;;;22.18;52.20
8575;BME280;4325;42.520;27.448;2023-05-03T11:55:11;101858.66;;;21.55;54.81
8575;BME280;4325;42.520;27.448;2023-05-03T11:57:38;101850.19;;;21.02;59.50
8575;BME280;4325;42.520;27.448;2023-05-03T12:00:12;101827.50;;;20.59;63.80
8575;BME280;4325;42.520;27.448;2023-05-03T12:02:42;101808.22;;;20.27;66.32
8575;BME280;4325;42.520;27.448;2023-05-03T12:05:08;101802.53;;;20.05;68.39
8575;BME280;4325;42.520;27.448;2023-05-03T12:07:36;101826.72;;;19.91;70.18
8575;BME280;4325;42.520;27.448;2023-05-03T12:10:14;101827.34;;;19.88;72.02
8575;BME280;4325;42.520;27.448;2023-05-03T12:12:54;101827.88;;;20.17;71.56
8575;BME280;4325;42.520;27.448;2023-05-03T12:15:31;101839.16;;;20.75;69.43
8575;BME280;4325;42.520;27.448;2023-05-03T12:17:59;101845.47;;;21.25;66.35
8575;BME280;4325;42.520;27.448;2023-05-03T12:20:27;101831.03;;;21.45;64.16
8575;BME280;4325;42.520;27.448;2023-05-03T12:23:00;101811.56;;;21.76;62.01
8575;BME280;4325;42.520;27.448;2023-05-03T12:25:28;101819.78;;;22.20;59.62
8575;BME280;4325;42.520;27.448;2023-05-03T12:27:57;101819.69;;;22.33;58.55
8575;BME280;4325;42.520;27.448;2023-05-03T12:30:25;101810.50;;;22.59;56.89
8575;BME280;4325;42.520;27.448;2023-05-03T12:32:54;101811.56;;;22.97;55.95
8575;BME280;4325;42.520;27.448;2023-05-03T12:35:21;101833.91;;;23.48;52.70
8575;BME280;4325;42.520;27.448;2023-05-03T12:37:49;101847.53;;;23.50;52.61
8575;BME280;4325;42.520;27.448;2023-05-03T12:40:17;101827.22;;;23.79;52.32
8575;BME280;4325;42.520;27.448;2023-05-03T12:42:45;101820.09;;;24.36;50.28
8575;BME280;4325;42.520;27.448;2023-05-03T12:45:12;101810.44;;;24.75;48.69
8575;BME280;4325;42.520;27.448;2023-05-03T12:47:39;101811.84;;;24.89;47.88
8575;BME280;4325;42.520;27.448;2023-05-03T12:50:09;101820.97;;;25.31;46.59
8575;BME280;4325;42.520;27.448;2023-05-03T12:52:36;101825.13;;;25.79;45.50
8575;BME280;4325;42.520;27.448;2023-05-03T12:55:04;101825.69;;;25.60;44.25
8575;BME280;4325;42.520;27.448;2023-05-03T12:57:32;101806.50;;;24.97;45.76
8575;BME280;4325;42.520;27.448;2023-05-03T12:59:59;101796.53;;;23.99;47.68
8575;BME280;4325;42.520;27.448;2023-05-03T13:02:26;101783.47;;;22.85;50.19
8575;BME280;4325;42.520;27.448;2023-05-03T13:04:54;101775.94;;;21.73;54.47
8575;BME280;4325;42.520;27.448;2023-05-03T13:07:22;101771.78;;;20.86;58.71